sensor_id;sensor_type;location;lat;lon;timestamp;pressure;altitude;pressure_sealevel;temperature;humidity
27984;BME280;15317;50.360;8.726;2023-01-10T00:03:03;99014.47;;;3.98;100.00
27984;BME280;15317;50.360;8.726;2023-01-10T00:07:06;99020.06;;;4.06;100.00
27984;BME280;15317;50.360;8.726;2023-01-10T00:11:08;99022.94;;;4.14;100.00
27984;BME280;15317;50.360;8.726;2023-01-10T00:15:24;99027.06;;;4.18;100.00
27984;BME280;15317;50.360;8.726;2023-01-10T00:19:26;99039.72;;;4.27;100.00
27984;BME280;15317;50.360;8.726;2023-01-10T00:23:30;99034.56;;;4.35;100.00
27984;BME280;15317;50.360;8.726;2023-01-10T00:27:32;99052.84;;;4.42;100.00
27984;BME280;15317;50.360;8.726;2023-01-10T00:31:34;99049.88;;;4.45;100.00
27984;BME280;15317;50.360;8.726;2023-01-10T00:35:36;99045.84;;;4.50;100.00
27984;BME280;15317;50.360;8.726;2023-01-10T00:39:39;99065.88;;;4.46;100.00
27984;BME280;15317;50.360;8.726;2023-01-10T00:43:41;99061.38;;;4.47;100.00
27984;BME280;15317;50.360;8.726;2023-01-10T00:47:58;99070.28;;;4.47;100.00
27984;BME280;15317;50.360;8.726;2023-01-10T00:52:00;99086.28;;;4.49;100.00
27984;BME280;15317;50.360;8.726;2023-01-10T00:56:04;99095.06;;;4.51;100.00
27984;BME280;15317;50.360;8.726;2023-01-10T01:00:07;99104.47;;;4.56;100.00
27984;BME280;15317;50.360;8.726;2023-01-10T01:04:09;99107.59;;;4.61;100.00
27984;BME280;15317;50.360;8.726;2023-01-10T01:08:13;99129.97;;;4.62;100.00
27984;BME280;15317;50.360;8.726;2023-01-10T01:12:16;99143.44;;;4.62;100.00
27984;BME280;15317;50.360;8.726;2023-01-10T01:16:18;99154.84;;;4.75;100.00
27984;BME280;15317;50.360;8.726;2023-01-10T01:20:21;99166.06;;;4.80;100.00
27984;BME280;15317;50.360;8.726;2023-01-10T01:24:23;99176.38;;;4.75;100.00
27984;BME280;15317;50.360;8.726;2023-01-10T01:28:26;99187.38;;;4.72;100.00
27984;BME280;15317;50.360;8.726;2023-01-10T01:32:28;99204.00;;;4.77;100.00
27984;BME280;15317;50.360;8.726;2023-01-10T01:36:30;99213.69;;;4.68;100.00
27984;BME280;15317;50.360;8.726;2023-01-10T01:40:32;99214.09;;;4.64;100.00
27984;BME280;15317;50.360;8.726;2023-01-10T01:44:37;99226.88;;;4.71;100.00
27984;BME280;15317;50.360;8.726;2023-01-10T01:48:41;99230.25;;;4.64;100.00
27984;BME280;15317;50.360;8.726;2023-01-10T01:52:45;99242.09;;;4.61;100.00
27984;BME280;15317;50.360;8.726;2023-01-10T01:56:52;99247.34;;;4.63;100.00
27984;BME280;15317;50.360;8.726;2023-01-10T02:00:56;99254.81;;;4.59;100.00
27984;BME280;15317;50.360;8.726;2023-01-10T02:05:01;99262.25;;;4.67;100.00
27984;BME280;15317;50.360;8.726;2023-01-10T02:09:11;99292.81;;;4.66;100.00
27984;BME280;15317;50.360;8.726;2023-01-10T02:13:18;99291.59;;;4.59;100.00
27984;BME280;15317;50.360;8.726;2023-01-10T02:17:23;99289.91;;;4.58;100.00
27984;BME280;15317;50.360;8.726;2023-01-10T02:21:35;99286.38;;;4.46;100.00
27984;BME280;15317;50.360;8.726;2023-01-10T02:26:04;99290.91;;;4.46;100.00
27984;BME280;15317;50.360;8.726;2023-01-10T02:30:35;99296.06;;;4.49;100.00
27984;BME280;15317;50.360;8.726;2023-01-10T02:34:57;99296.75;;;4.51;100.00
27984;BME280;15317;50.360;8.726;2023-01-10T02:39:04;99314.25;;;4.56;100.00
27984;BME280;15317;50.360;8.726;2023-01-10T02:43:11;99322.31;;;4.56;100.00
27984;BME280;15317;50.360;8.726;2023-01-10T02:47:14;99332.69;;;4.61;100.00
27984;BME280;15317;50.360;8.726;2023-01-10T02:51:20;99332.66;;;4.72;100.00
27984;BME280;15317;50.360;8.726;2023-01-10T02:55:27;99326.81;;;4.67;100.00
27984;BME280;15317;50.360;8.726;2023-01-10T02:59:56;99334.88;;;4.67;100.00
27984;BME280;15317;50.360;8.726;2023-01-10T03:04:09;99343.22;;;4.64;100.00
27984;BME280;15317;50.360;8.726;2023-01-10T03:08:24;99357.28;;;4.56;100.00
27984;BME280;15317;50.360;8.726;2023-01-10T03:12:31;99356.06;;;4.49;100.00
27984;BME280;15317;50.360;8.726;2023-01-10T03:16:38;99362.78;;;4.44;100.00
27984;BME280;15317;50.360;8.726;2023-01-10T03:20:44;99370.84;;;4.44;100.00
27984;BME280;15317;50.360;8.726;2023-01-10T03:24:51;99365.63;;;4.42;100.00
27984;BME280;15317;50.360;8.726;2023-01-10T03:28:57;99377.09;;;4.44;100.00
27984;BME280;15317;50.360;8.726;2023-01-10T03:33:02;99386.00;;;4.45;100.00
27984;BME280;15317;50.360;8.726;2023-01-10T03:37:09;99396.03;;;4.31;100.00
27984;BME280;15317;50.360;8.726;2023-01-10T03:41:18;99396.78;;;4.22;100.00
27984;BME280;15317;50.360;8.726;2023-01-10T03:45:28;99403.63;;;4.15;100.00
27984;BME280;15317;50.360;8.726;2023-01-10T03:49:32;99407.53;;;4.11;100.00
27984;BME280;15317;50.360;8.726;2023-01-10T03:53:37;99422.69;;;4.12;100.00
27984;BME280;15317;50.360;8.726;2023-01-10T03:57:42;99436.13;;;4.01;100.00
27984;BME280;15317;50.360;8.726;2023-01-10T04:01:45;99453.06;;;3.90;100.00
27984;BME280;15317;50.360;8.726;2023-01-10T04:05:47;99453.19;;;3.89;100.00
27984;BME280;15317;50.360;8.726;2023-01-10T04:09:49;99465.16;;;3.96;100.00
27984;BME280;15317;50.360;8.726;2023-01-10T04:13:52;99468.69;;;3.96;100.00
27984;BME280;15317;50.360;8.726;2023-01-10T04:17:54;99493.13;;;3.93;100.00
27984;BME280;15317;50.360;8.726;2023-01-10T04:21:57;99501.09;;;3.95;100.00
27984;BME280;15317;50.360;8.726;2023-01-10T04:25:59;99501.31;;;3.92;100.00
27984;BME280;15317;50.360;8.726;2023-01-10T04:30:03;99503.50;;;3.87;100.00
27984;BME280;15317;50.360;8.726;2023-01-10T04:34:05;99523.28;;;3.86;100.00
27984;BME280;15317;50.360;8.726;2023-01-10T04:38:07;99521.81;;;3.82;100.00
27984;BME280;15317;50.360;8.726;2023-01-10T04:42:09;99518.84;;;3.74;100.00
27984;BME280;15317;50.360;8.726;2023-01-10T04:46:12;99527.88;;;3.73;100.00
27984;BME280;15317;50.360;8.726;2023-01-10T04:50:14;99529.81;;;3.71;100.00
27984;BME280;15317;50.360;8.726;2023-01-10T04:54:18;99533.25;;;3.73;100.00
27984;BME280;15317;50.360;8.726;2023-01-10T04:58:20;99540.94;;;3.77;100.00
27984;BME280;15317;50.360;8.726;2023-01-10T05:02:24;99553.75;;;3.74;100.00
27984;BME280;15317;50.360;8.726;2023-01-10T05:06:26;99558.50;;;3.70;100.00
27984;BME280;15317;50.360;8.726;2023-01-10T05:10:28;99546.16;;;3.68;100.00
27984;BME280;15317;50.360;8.726;2023-01-10T05:14:29;99558.00;;;3.65;100.00
27984;BME280;15317;50.360;8.726;2023-01-10T05:18:33;99572.84;;;3.58;100.00
27984;BME280;15317;50.360;8.726;2023-01-10T05:22:35;99576.56;;;3.44;100.00
27984;BME280;15317;50.360;8.726;2023-01-10T05:26:37;99581.00;;;3.33;100.00
27984;BME280;15317;50.360;8.726;2023-01-10T05:30:39;99588.75;;;3.25;100.00
27984;BME280;15317;50.360;8.726;2023-01-10T05:34:42;99594.22;;;3.23;100.00
27984;BME280;15317;50.360;8.726;2023-01-10T05:38:44;99601.91;;;3.40;100.00
27984;BME280;15317;50.360;8.726;2023-01-10T05:42:46;99605.47;;;3.65;100.00
27984;BME280;15317;50.360;8.726;2023-01-10T05:46:49;99612.09;;;3.72;100.00
27984;BME280;15317;50.360;8.726;2023-01-10T05:50:52;99632.84;;;3.70;100.00
27984;BME280;15317;50.360;8.726;2023-01-10T05:54:54;99629.66;;;3.65;100.00
27984;BME280;15317;50.360;8.726;2023-01-10T05:58:56;99631.81;;;3.60;100.00
27984;BME280;15317;50.360;8.726;2023-01-10T06:02:58;99634.72;;;3.56;100.00
27984;BME280;15317;50.360;8.726;2023-01-10T06:07:02;99640.34;;;3.53;100.00
27984;BME280;15317;50.360;8.726;2023-01-10T06:11:04;99651.28;;;3.50;100.00
27984;BME280;15317;50.360;8.726;2023-01-10T06:15:07;99665.66;;;3.49;100.00
27984;BME280;15317;50.360;8.726;2023-01-10T06:19:09;99672.75;;;3.50;100.00
27984;BME280;15317;50.360;8.726;2023-01-10T06:23:13;99682.88;;;3.47;100.00
27984;BME280;15317;50.360;8.726;2023-01-10T06:27:15;99693.63;;;3.47;100.00
27984;BME280;15317;50.360;8.726;2023-01-10T06:31:17;99704.22;;;3.48;100.00
27984;BME280;15317;50.360;8.726;2023-01-10T06:35:19;99707.66;;;3.50;100.00
27984;BME280;15317;50.360;8.726;2023-01-10T06:39:22;99701.13;;;3.54;100.00
27984;BME280;15317;50.360;8.726;2023-01-10T06:43:24;99692.38;;;3.64;100.00
27984;BME280;15317;50.360;8.726;2023-01-10T06:47:26;99703.44;;;3.72;100.00
27984;BME280;15317;50.360;8.726;2023-01-10T06:51:28;99713.72;;;3.78;100.00
27984;BME280;15317;50.360;8.726;2023-01-10T06:55:32;99711.56;;;3.83;100.00
27984;BME280;15317;50.360;8.726;2023-01-10T06:59:34;99731.78;;;3.88;100.00
27984;BME280;15317;50.360;8.726;2023-01-10T07:03:35;99735.84;;;3.94;100.00
27984;BME280;15317;50.360;8.726;2023-01-10T07:07:38;99746.34;;;3.97;100.00
27984;BME280;15317;50.360;8.726;2023-01-10T07:11:41;99737.31;;;3.98;100.00
27984;BME280;15317;50.360;8.726;2023-01-10T07:15:43;99743.75;;;4.08;100.00
27984;BME280;15317;50.360;8.726;2023-01-10T07:19:45;99758.91;;;4.09;100.00
27984;BME280;15317;50.360;8.726;2023-01-10T07:23:47;99763.28;;;4.10;100.00
27984;BME280;15317;50.360;8.726;2023-01-10T07:27:51;99780.06;;;4.14;100.00
27984;BME280;15317;50.360;8.726;2023-01-10T07:31:55;99801.69;;;4.12;100.00
27984;BME280;15317;50.360;8.726;2023-01-10T07:35:57;99809.09;;;4.21;100.00
27984;BME280;15317;50.360;8.726;2023-01-10T07:40:00;99812.91;;;4.30;100.00
27984;BME280;15317;50.360;8.726;2023-01-10T07:44:04;99816.56;;;4.42;100.00
27984;BME280;15317;50.360;8.726;2023-01-10T07:48:06;99817.91;;;4.47;100.00
27984;BME280;15317;50.360;8.726;2023-01-10T07:52:08;99823.81;;;4.52;100.00
27984;BME280;15317;50.360;8.726;2023-01-10T07:56:10;99829.53;;;4.48;100.00
27984;BME280;15317;50.360;8.726;2023-01-10T08:00:15;99833.91;;;4.61;100.00
27984;BME280;15317;50.360;8.726;2023-01-10T08:04:17;99841.97;;;4.85;100.00
27984;BME280;15317;50.360;8.726;2023-01-10T08:08:19;99828.25;;;5.80;100.00
27984;BME280;15317;50.360;8.726;2023-01-10T08:12:21;99839.59;;;5.97;100.00
27984;BME280;15317;50.360;8.726;2023-01-10T08:16:25;99837.09;;;5.71;100.00
27984;BME280;15317;50.360;8.726;2023-01-10T08:20:28;99855.69;;;5.52;100.00
27984;BME280;15317;50.360;8.726;2023-01-10T08:24:30;99851.91;;;7.09;100.00
27984;BME280;15317;50.360;8.726;2023-01-10T08:28:32;99876.47;;;8.30;94.28
27984;BME280;15317;50.360;8.726;2023-01-10T08:32:35;99876.97;;;7.52;90.62
27984;BME280;15317;50.360;8.726;2023-01-10T08:36:37;99879.72;;;6.89;93.53
27984;BME280;15317;50.360;8.726;2023-01-10T08:40:39;99887.97;;;6.65;95.11
27984;BME280;15317;50.360;8.726;2023-01-10T08:44:41;99882.22;;;6.36;97.91
27984;BME280;15317;50.360;8.726;2023-01-10T08:48:44;99891.31;;;6.46;96.55
27984;BME280;15317;50.360;8.726;2023-01-10T08:52:48;99895.25;;;7.81;92.03
27984;BME280;15317;50.360;8.726;2023-01-10T08:56:50;99895.94;;;8.55;79.64
27984;BME280;15317;50.360;8.726;2023-01-10T09:00:52;99906.50;;;8.58;81.79
27984;BME280;15317;50.360;8.726;2023-01-10T09:04:56;99905.00;;;7.93;84.44
27984;BME280;15317;50.360;8.726;2023-01-10T09:08:58;99903.34;;;7.39;88.61
27984;BME280;15317;50.360;8.726;2023-01-10T09:13:00;99907.94;;;7.17;93.30
27984;BME280;15317;50.360;8.726;2023-01-10T09:17:02;99910.38;;;7.51;91.06
27984;BME280;15317;50.360;8.726;2023-01-10T09:21:05;99923.78;;;9.45;82.55
27984;BME280;15317;50.360;8.726;2023-01-10T09:25:07;99917.75;;;11.28;73.36
27984;BME280;15317;50.360;8.726;2023-01-10T09:29:09;99926.56;;;11.39;68.72
27984;BME280;15317;50.360;8.726;2023-01-10T09:33:12;99921.59;;;11.70;67.78
27984;BME280;15317;50.360;8.726;2023-01-10T09:37:15;99928.13;;;11.95;63.81
27984;BME280;15317;50.360;8.726;2023-01-10T09:41:44;99933.00;;;13.37;59.45
27984;BME280;15317;50.360;8.726;2023-01-10T09:45:56;99924.78;;;15.90;50.48
27984;BME280;15317;50.360;8.726;2023-01-10T09:50:09;99940.38;;;16.50;46.49
27984;BME280;15317;50.360;8.726;2023-01-10T09:54:19;99943.34;;;16.26;46.09
27984;BME280;15317;50.360;8.726;2023-01-10T09:58:26;99969.41;;;15.14;47.57
27984;BME280;15317;50.360;8.726;2023-01-10T10:02:33;99967.09;;;13.41;50.90
27984;BME280;15317;50.360;8.726;2023-01-10T10:06:37;99956.44;;;13.14;52.75
27984;BME280;15317;50.360;8.726;2023-01-10T10:10:50;99960.53;;;14.41;50.16
27984;BME280;15317;50.360;8.726;2023-01-10T10:15:02;99960.69;;;16.78;46.24
27984;BME280;15317;50.360;8.726;2023-01-10T10:19:12;99962.13;;;15.29;46.99
27984;BME280;15317;50.360;8.726;2023-01-10T10:23:30;99943.91;;;12.95;51.98
27984;BME280;15317;50.360;8.726;2023-01-10T10:27:40;99948.44;;;10.93;59.31
27984;BME280;15317;50.360;8.726;2023-01-10T10:32:03;99948.75;;;9.48;65.64
27984;BME280;15317;50.360;8.726;2023-01-10T10:36:11;99948.78;;;8.28;69.71
27984;BME280;15317;50.360;8.726;2023-01-10T10:40:17;99953.75;;;8.03;73.71
27984;BME280;15317;50.360;8.726;2023-01-10T10:44:31;99950.13;;;7.40;77.48
27984;BME280;15317;50.360;8.726;2023-01-10T10:48:39;99943.44;;;7.23;79.95
27984;BME280;15317;50.360;8.726;2023-01-10T10:52:43;99937.19;;;7.23;80.33
27984;BME280;15317;50.360;8.726;2023-01-10T10:56:45;99953.03;;;7.16;81.26
27984;BME280;15317;50.360;8.726;2023-01-10T11:00:50;99937.94;;;7.13;82.71
27984;BME280;15317;50.360;8.726;2023-01-10T11:04:56;99945.94;;;7.15;83.41
27984;BME280;15317;50.360;8.726;2023-01-10T11:09:00;99941.22;;;7.28;83.60
27984;BME280;15317;50.360;8.726;2023-01-10T11:13:08;99940.47;;;7.26;82.47
27984;BME280;15317;50.360;8.726;2023-01-10T11:17:21;99936.09;;;7.14;84.01
27984;BME280;15317;50.360;8.726;2023-01-10T11:21:23;99932.25;;;7.17;88.03
27984;BME280;15317;50.360;8.726;2023-01-10T11:25:25;99944.72;;;7.08;88.65
27984;BME280;15317;50.360;8.726;2023-01-10T11:29:35;99941.50;;;7.03;89.22
27984;BME280;15317;50.360;8.726;2023-01-10T11:33:40;99944.94;;;7.05;89.18
27984;BME280;15317;50.360;8.726;2023-01-10T11:37:42;99946.38;;;7.20;86.05
27984;BME280;15317;50.360;8.726;2023-01-10T11:41:44;99940.44;;;7.37;82.87
27984;BME280;15317;50.360;8.726;2023-01-10T11:45:52;99932.81;;;7.42;82.73
27984;BME280;15317;50.360;8.726;2023-01-10T11:49:56;99929.38;;;7.40;78.81
27984;BME280;15317;50.360;8.726;2023-01-10T11:54:01;99927.72;;;7.28;79.87
27984;BME280;15317;50.360;8.726;2023-01-10T11:58:05;99935.69;;;7.30;79.16
27984;BME280;15317;50.360;8.726;2023-01-10T12:02:20;99923.38;;;7.37;81.04
27984;BME280;15317;50.360;8.726;2023-01-10T12:06:26;99911.72;;;7.36;83.72
27984;BME280;15317;50.360;8.726;2023-01-10T12:10:29;99907.75;;;7.40;85.00
27984;BME280;15317;50.360;8.726;2023-01-10T12:14:31;99909.47;;;7.41;85.13
27984;BME280;15317;50.360;8.726;2023-01-10T12:18:33;99893.78;;;7.35;83.96
27984;BME280;15317;50.360;8.726;2023-01-10T12:22:38;99889.88;;;7.28;84.48
27984;BME280;15317;50.360;8.726;2023-01-10T12:26:41;99902.53;;;7.28;82.86
27984;BME280;15317;50.360;8.726;2023-01-10T12:30:44;99895.31;;;7.17;85.63
27984;BME280;15317;50.360;8.726;2023-01-10T12:34:55;99890.19;;;7.14;83.75
27984;BME280;15317;50.360;8.726;2023-01-10T12:39:07;99896.16;;;7.18;83.62
27984;BME280;15317;50.360;8.726;2023-01-10T12:43:16;99900.13;;;7.13;81.47
27984;BME280;15317;50.360;8.726;2023-01-10T12:47:52;99904.50;;;7.26;81.85
27984;BME280;15317;50.360;8.726;2023-01-10T12:51:59;99905.34;;;7.26;78.77
27984;BME280;15317;50.360;8.726;2023-01-10T12:56:06;99914.41;;;7.36;79.18
27984;BME280;15317;50.360;8.726;2023-01-10T13:00:19;99917.13;;;7.36;81.34
27984;BME280;15317;50.360;8.726;2023-01-10T13:04:24;99914.91;;;7.30;80.50
27984;BME280;15317;50.360;8.726;2023-01-10T13:08:29;99916.44;;;7.23;80.30
27984;BME280;15317;50.360;8.726;2023-01-10T13:12:35;99913.16;;;7.08;82.07
27984;BME280;15317;50.360;8.726;2023-01-10T13:16:46;99912.41;;;7.06;84.62
27984;BME280;15317;50.360;8.726;2023-01-10T13:21:01;99915.00;;;6.97;85.90
27984;BME280;15317;50.360;8.726;2023-01-10T13:25:04;99926.59;;;6.88;87.06
27984;BME280;15317;50.360;8.726;2023-01-10T13:29:10;99915.28;;;6.83;87.40
27984;BME280;15317;50.360;8.726;2023-01-10T13:33:19;99915.53;;;6.91;87.22
27984;BME280;15317;50.360;8.726;2023-01-10T13:37:24;99906.72;;;6.89;88.84
27984;BME280;15317;50.360;8.726;2023-01-10T13:46:43;99905.50;;;6.82;89.09
27984;BME280;15317;50.360;8.726;2023-01-10T13:55:28;99898.63;;;6.78;89.69
27984;BME280;15317;50.360;8.726;2023-01-10T13:59:58;99901.59;;;6.63;90.90
27984;BME280;15317;50.360;8.726;2023-01-10T14:04:21;99901.84;;;6.49;91.99
27984;BME280;15317;50.360;8.726;2023-01-10T14:08:24;99899.16;;;6.49;91.75
27984;BME280;15317;50.360;8.726;2023-01-10T14:12:29;99884.19;;;6.45;92.22
27984;BME280;15317;50.360;8.726;2023-01-10T14:16:36;99871.69;;;6.44;92.76
27984;BME280;15317;50.360;8.726;2023-01-10T14:20:42;99879.53;;;6.36;93.98
27984;BME280;15317;50.360;8.726;2023-01-10T14:24:49;99872.81;;;6.30;94.88
27984;BME280;15317;50.360;8.726;2023-01-10T14:28:52;99865.69;;;6.29;93.49
27984;BME280;15317;50.360;8.726;2023-01-10T14:32:56;99861.91;;;6.21;94.65
27984;BME280;15317;50.360;8.726;2023-01-10T14:37:06;99858.00;;;6.14;95.54
27984;BME280;15317;50.360;8.726;2023-01-10T14:41:13;99851.59;;;6.15;95.85
27984;BME280;15317;50.360;8.726;2023-01-10T14:45:22;99847.19;;;6.03;96.01
27984;BME280;15317;50.360;8.726;2023-01-10T14:49:33;99845.47;;;6.02;96.39
27984;BME280;15317;50.360;8.726;2023-01-10T14:53:36;99844.22;;;5.94;94.92
27984;BME280;15317;50.360;8.726;2023-01-10T14:57:38;99841.06;;;5.89;96.11
27984;BME280;15317;50.360;8.726;2023-01-10T15:01:40;99842.09;;;5.87;96.65
27984;BME280;15317;50.360;8.726;2023-01-10T15:05:45;99835.53;;;5.80;97.18
27984;BME280;15317;50.360;8.726;2023-01-10T15:09:52;99827.47;;;5.91;95.64
27984;BME280;15317;50.360;8.726;2023-01-10T15:14:00;99819.81;;;5.85;96.28
27984;BME280;15317;50.360;8.726;2023-01-10T15:18:10;99835.44;;;5.92;98.43
27984;BME280;15317;50.360;8.726;2023-01-10T15:22:26;99828.41;;;6.01;97.03
27984;BME280;15317;50.360;8.726;2023-01-10T15:26:30;99822.44;;;5.98;97.08
27984;BME280;15317;50.360;8.726;2023-01-10T15:30:35;99821.69;;;5.95;97.29
27984;BME280;15317;50.360;8.726;2023-01-10T15:34:38;99818.38;;;6.03;96.24
27984;BME280;15317;50.360;8.726;2023-01-10T15:38:43;99817.28;;;5.94;96.53
27984;BME280;15317;50.360;8.726;2023-01-10T15:42:47;99809.06;;;5.96;96.48
27984;BME280;15317;50.360;8.726;2023-01-10T15:46:53;99801.09;;;5.94;96.12
27984;BME280;15317;50.360;8.726;2023-01-10T15:50:57;99795.22;;;6.01;96.25
27984;BME280;15317;50.360;8.726;2023-01-10T15:55:34;99800.50;;;5.91;97.12
27984;BME280;15317;50.360;8.726;2023-01-10T15:59:40;99790.81;;;5.88;96.79
27984;BME280;15317;50.360;8.726;2023-01-10T16:03:48;99791.28;;;5.82;97.70
27984;BME280;15317;50.360;8.726;2023-01-10T16:07:51;99779.03;;;5.78;97.85
27984;BME280;15317;50.360;8.726;2023-01-10T16:11:55;99783.19;;;5.71;97.92
27984;BME280;15317;50.360;8.726;2023-01-10T16:16:17;99779.53;;;5.72;98.00
27984;BME280;15317;50.360;8.726;2023-01-10T16:20:30;99780.75;;;5.79;97.33
27984;BME280;15317;50.360;8.726;2023-01-10T16:24:35;99787.59;;;5.72;97.46
27984;BME280;15317;50.360;8.726;2023-01-10T16:28:38;99779.53;;;5.72;97.02
27984;BME280;15317;50.360;8.726;2023-01-10T16:32:41;99780.50;;;5.71;97.40
27984;BME280;15317;50.360;8.726;2023-01-10T16:36:43;99776.09;;;5.70;96.97
27984;BME280;15317;50.360;8.726;2023-01-10T16:40:48;99768.47;;;5.75;96.79
27984;BME280;15317;50.360;8.726;2023-01-10T16:44:50;99767.72;;;5.73;97.33
27984;BME280;15317;50.360;8.726;2023-01-10T16:48:54;99762.22;;;5.75;97.09
27984;BME280;15317;50.360;8.726;2023-01-10T16:52:57;99756.25;;;5.71;98.69
27984;BME280;15317;50.360;8.726;2023-01-10T16:56:59;99754.16;;;5.64;98.60
27984;BME280;15317;50.360;8.726;2023-01-10T17:01:01;99753.06;;;5.66;99.05
27984;BME280;15317;50.360;8.726;2023-01-10T17:05:05;99744.25;;;5.64;99.05
27984;BME280;15317;50.360;8.726;2023-01-10T17:09:10;99738.84;;;5.64;98.73
27984;BME280;15317;50.360;8.726;2023-01-10T17:13:16;99729.91;;;5.64;98.55
27984;BME280;15317;50.360;8.726;2023-01-10T17:17:21;99717.63;;;5.60;99.01
27984;BME280;15317;50.360;8.726;2023-01-10T17:21:25;99711.63;;;5.67;98.86
27984;BME280;15317;50.360;8.726;2023-01-10T17:25:27;99705.28;;;5.68;97.06
27984;BME280;15317;50.360;8.726;2023-01-10T17:29:29;99697.69;;;5.62;97.55
27984;BME280;15317;50.360;8.726;2023-01-10T17:33:31;99692.69;;;5.57;97.94
27984;BME280;15317;50.360;8.726;2023-01-10T17:37:35;99688.41;;;5.66;96.57
27984;BME280;15317;50.360;8.726;2023-01-10T17:41:37;99688.25;;;5.56;97.48
27984;BME280;15317;50.360;8.726;2023-01-10T17:45:39;99677.59;;;5.55;98.20
27984;BME280;15317;50.360;8.726;2023-01-10T17:49:41;99688.84;;;5.60;97.91
27984;BME280;15317;50.360;8.726;2023-01-10T17:53:44;99697.09;;;5.59;98.62
27984;BME280;15317;50.360;8.726;2023-01-10T17:57:46;99689.38;;;5.65;97.52
27984;BME280;15317;50.360;8.726;2023-01-10T18:01:48;99676.50;;;5.57;97.79
27984;BME280;15317;50.360;8.726;2023-01-10T18:05:51;99683.97;;;5.54;98.42
27984;BME280;15317;50.360;8.726;2023-01-10T18:09:55;99673.19;;;5.54;98.31
27984;BME280;15317;50.360;8.726;2023-01-10T18:13:57;99679.09;;;5.59;98.45
27984;BME280;15317;50.360;8.726;2023-01-10T18:17:59;99673.69;;;5.59;98.59
27984;BME280;15317;50.360;8.726;2023-01-10T18:22:03;99679.09;;;5.59;99.56
27984;BME280;15317;50.360;8.726;2023-01-10T18:26:28;99680.19;;;5.56;99.06
27984;BME280;15317;50.360;8.726;2023-01-10T18:30:30;99680.78;;;5.60;98.02
27984;BME280;15317;50.360;8.726;2023-01-10T18:34:32;99690.84;;;5.58;97.65
27984;BME280;15317;50.360;8.726;2023-01-10T18:38:35;99681.41;;;5.64;98.73
27984;BME280;15317;50.360;8.726;2023-01-10T18:42:38;99678.22;;;5.59;98.95
27984;BME280;15317;50.360;8.726;2023-01-10T18:46:40;99673.19;;;5.54;100.00
27984;BME280;15317;50.360;8.726;2023-01-10T18:50:42;99675.19;;;5.52;99.65
27984;BME280;15317;50.360;8.726;2023-01-10T18:54:46;99678.59;;;5.54;100.00
27984;BME280;15317;50.360;8.726;2023-01-10T18:58:50;99691.44;;;5.62;98.95
27984;BME280;15317;50.360;8.726;2023-01-10T19:02:52;99671.00;;;5.59;99.28
27984;BME280;15317;50.360;8.726;2023-01-10T19:06:57;99669.53;;;5.55;99.81
27984;BME280;15317;50.360;8.726;2023-01-10T19:10:59;99664.75;;;5.59;98.99
27984;BME280;15317;50.360;8.726;2023-01-10T19:15:02;99675.19;;;5.52;100.00
27984;BME280;15317;50.360;8.726;2023-01-10T19:19:06;99678.84;;;5.51;100.00
27984;BME280;15317;50.360;8.726;2023-01-10T19:23:09;99666.09;;;5.53;100.00
27984;BME280;15317;50.360;8.726;2023-01-10T19:27:11;99680.19;;;5.45;100.00
27984;BME280;15317;50.360;8.726;2023-01-10T19:31:15;99672.09;;;5.34;100.00
27984;BME280;15317;50.360;8.726;2023-01-10T19:35:17;99660.97;;;5.28;100.00
27984;BME280;15317;50.360;8.726;2023-01-10T19:39:19;99656.31;;;5.19;100.00
27984;BME280;15317;50.360;8.726;2023-01-10T19:43:21;99649.94;;;5.08;100.00
27984;BME280;15317;50.360;8.726;2023-01-10T19:47:26;99650.66;;;4.99;100.00
27984;BME280;15317;50.360;8.726;2023-01-10T19:51:27;99641.59;;;4.89;100.00
27984;BME280;15317;50.360;8.726;2023-01-10T19:55:29;99632.78;;;4.87;100.00
27984;BME280;15317;50.360;8.726;2023-01-10T19:59:32;99617.25;;;4.80;100.00
27984;BME280;15317;50.360;8.726;2023-01-10T20:03:37;99620.03;;;4.78;100.00
27984;BME280;15317;50.360;8.726;2023-01-10T20:07:41;99615.03;;;4.73;100.00
27984;BME280;15317;50.360;8.726;2023-01-10T20:11:43;99607.44;;;4.67;100.00
27984;BME280;15317;50.360;8.726;2023-01-10T20:15:46;99597.53;;;4.68;100.00
27984;BME280;15317;50.360;8.726;2023-01-10T20:19:49;99599.22;;;4.58;100.00
27984;BME280;15317;50.360;8.726;2023-01-10T20:23:51;99581.63;;;4.54;100.00
27984;BME280;15317;50.360;8.726;2023-01-10T20:27:53;99576.63;;;4.49;100.00
27984;BME280;15317;50.360;8.726;2023-01-10T20:31:55;99559.84;;;4.46;100.00
27984;BME280;15317;50.360;8.726;2023-01-10T20:36:03;99560.69;;;4.46;100.00
27984;BME280;15317;50.360;8.726;2023-01-10T20:40:07;99555.56;;;4.43;100.00
27984;BME280;15317;50.360;8.726;2023-01-10T20:44:09;99551.03;;;4.44;100.00
27984;BME280;15317;50.360;8.726;2023-01-10T20:48:11;99558.59;;;4.38;100.00
27984;BME280;15317;50.360;8.726;2023-01-10T20:52:15;99549.19;;;4.33;100.00
27984;BME280;15317;50.360;8.726;2023-01-10T20:56:18;99552.97;;;4.30;100.00
27984;BME280;15317;50.360;8.726;2023-01-10T21:00:20;99548.31;;;4.32;100.00
27984;BME280;15317;50.360;8.726;2023-01-10T21:04:22;99550.28;;;4.30;100.00
27984;BME280;15317;50.360;8.726;2023-01-10T21:08:26;99544.78;;;4.32;100.00
27984;BME280;15317;50.360;8.726;2023-01-10T21:12:29;99533.16;;;4.31;100.00
27984;BME280;15317;50.360;8.726;2023-01-10T21:16:32;99524.88;;;4.34;100.00
27984;BME280;15317;50.360;8.726;2023-01-10T21:20:34;99518.00;;;4.30;100.00
27984;BME280;15317;50.360;8.726;2023-01-10T21:24:38;99517.66;;;4.35;100.00
27984;BME280;15317;50.360;8.726;2023-01-10T21:28:41;99507.50;;;4.27;100.00
27984;BME280;15317;50.360;8.726;2023-01-10T21:32:46;99502.88;;;4.29;100.00
27984;BME280;15317;50.360;8.726;2023-01-10T21:36:48;99495.78;;;4.28;100.00
27984;BME280;15317;50.360;8.726;2023-01-10T21:40:52;99491.13;;;4.30;100.00
27984;BME280;15317;50.360;8.726;2023-01-10T21:44:54;99487.47;;;4.31;100.00
27984;BME280;15317;50.360;8.726;2023-01-10T21:48:56;99482.34;;;4.28;100.00
27984;BME280;15317;50.360;8.726;2023-01-10T21:52:59;99488.81;;;4.26;100.00
27984;BME280;15317;50.360;8.726;2023-01-10T21:57:02;99490.25;;;4.30;100.00